createdAt,value
2023-03-16T00:02:04.004Z,-1.26
2023-03-16T00:04:37.741Z,-1.27
2023-03-16T00:07:07.125Z,-1.28
2023-03-16T00:09:33.949Z,-1.14
2023-03-16T00:12:03.770Z,-1.11
2023-03-16T00:14:34.051Z,-1.28
2023-03-16T00:17:01.743Z,-1.47
2023-03-16T00:19:28.540Z,-1.44
2023-03-16T00:21:55.274Z,-1.52
2023-03-16T00:24:25.162Z,-1.59
2023-03-16T00:26:55.062Z,-1.35
2023-03-16T00:29:22.846Z,-1.51
2023-03-16T00:31:49.627Z,-1.49
2023-03-16T00:34:16.765Z,-1.61
2023-03-16T00:36:43.649Z,-1.53
2023-03-16T00:39:11.945Z,-1.62
2023-03-16T00:41:38.638Z,-1.43
2023-03-16T00:44:06.082Z,-1.58
2023-03-16T00:46:33.168Z,-1.50
2023-03-16T00:51:26.525Z,-1.59
2023-03-16T00:53:53.227Z,-1.73
2023-03-16T00:56:20.026Z,-1.61
2023-03-16T00:58:46.711Z,-1.63
2023-03-16T01:01:16.578Z,-1.84
2023-03-16T01:03:47.262Z,-1.71
2023-03-16T01:06:17.369Z,-1.62
2023-03-16T01:08:45.052Z,-1.65
2023-03-16T01:11:16.558Z,-1.88
2023-03-16T01:13:43.661Z,-1.92
2023-03-16T01:16:11.224Z,-2.05
2023-03-16T01:18:37.882Z,-1.91
2023-03-16T01:21:13.995Z,-1.81
2023-03-16T01:23:41.197Z,-2.02
2023-03-16T01:26:08.547Z,-1.98
2023-03-16T01:28:35.353Z,-1.84
2023-03-16T01:31:08.337Z,-1.76
2023-03-16T01:33:36.581Z,-1.74
2023-03-16T01:36:07.831Z,-1.88
2023-03-16T01:38:34.880Z,-1.94
2023-03-16T01:41:02.251Z,-1.92
2023-03-16T01:43:31.880Z,-1.98
2023-03-16T01:46:00.829Z,-2.05
2023-03-16T01:48:28.145Z,-1.95
2023-03-16T01:50:56.766Z,-2.09
2023-03-16T01:53:27.066Z,-2.06
2023-03-16T01:55:55.495Z,-2.11
2023-03-16T01:58:23.194Z,-2.20
2023-03-16T02:00:50.109Z,-2.20
2023-03-16T02:03:19.899Z,-2.11
2023-03-16T02:05:54.022Z,-2.11
2023-03-16T02:08:23.235Z,-2.11
2023-03-16T02:10:50.234Z,-2.15
2023-03-16T02:13:16.963Z,-2.19
2023-03-16T02:15:43.724Z,-2.13
2023-03-16T02:18:11.189Z,-2.02
2023-03-16T02:20:54.847Z,-2.07
2023-03-16T02:23:24.667Z,-1.99
2023-03-16T02:26:01.763Z,-1.92
2023-03-16T02:28:38.374Z,-1.91
2023-03-16T02:31:06.174Z,-1.90
2023-03-16T02:33:34.135Z,-1.75
2023-03-16T02:36:01.835Z,-1.63
2023-03-16T02:38:28.584Z,-1.87
2023-03-16T02:41:02.152Z,-1.87
2023-03-16T02:43:35.064Z,-1.86
2023-03-16T02:46:05.544Z,-1.82
2023-03-16T02:48:45.511Z,-1.88
2023-03-16T02:51:12.764Z,-2.10
2023-03-16T02:53:39.657Z,-2.03
2023-03-16T02:56:07.056Z,-2.19
2023-03-16T02:58:34.003Z,-2.14
2023-03-16T03:01:02.928Z,-2.00
2023-03-16T03:03:37.279Z,-2.00
2023-03-16T03:06:05.078Z,-2.07
2023-03-16T03:08:33.057Z,-2.22
2023-03-16T03:13:27.006Z,-2.17
2023-03-16T03:15:53.965Z,-2.16
2023-03-16T03:18:21.055Z,-2.10
2023-03-16T03:20:48.387Z,-2.18
2023-03-16T03:23:17.225Z,-2.26
2023-03-16T03:25:44.102Z,-2.23
2023-03-16T03:28:11.616Z,-2.26
2023-03-16T03:30:38.287Z,-2.16
2023-03-16T03:33:05.110Z,-2.26
2023-03-16T03:35:32.066Z,-2.23
2023-03-16T03:37:58.888Z,-2.21
2023-03-16T03:40:26.444Z,-2.23
2023-03-16T03:42:53.315Z,-2.09
2023-03-16T03:45:20.845Z,-2.26
2023-03-16T03:47:47.765Z,-2.39
2023-03-16T03:50:14.819Z,-2.27
2023-03-16T03:52:42.147Z,-2.51
2023-03-16T03:55:10.000Z,-2.35
2023-03-16T03:57:37.426Z,-2.32
2023-03-16T04:00:13.643Z,-2.48
2023-03-16T04:02:40.943Z,-2.48
2023-03-16T04:05:08.794Z,-2.53
2023-03-16T04:07:35.549Z,-2.47
2023-03-16T04:10:02.679Z,-2.51
2023-03-16T04:12:29.405Z,-2.25
2023-03-16T04:14:56.045Z,-2.49
2023-03-16T04:17:23.966Z,-2.53
2023-03-16T04:19:50.691Z,-2.47
2023-03-16T04:22:17.437Z,-2.60
2023-03-16T04:24:44.725Z,-2.52
2023-03-16T04:27:12.239Z,-2.53
2023-03-16T04:29:39.268Z,-2.53
2023-03-16T04:32:07.505Z,-2.43
2023-03-16T04:34:34.721Z,-2.40
2023-03-16T04:37:02.528Z,-2.32
2023-03-16T04:39:29.294Z,-2.32
2023-03-16T04:41:56.064Z,-2.27
2023-03-16T04:44:23.091Z,-2.27
2023-03-16T04:46:49.747Z,-2.31
2023-03-16T04:49:16.900Z,-2.30
2023-03-16T04:51:43.542Z,-2.02
2023-03-16T04:54:11.533Z,-2.19
2023-03-16T04:56:41.616Z,-2.29
2023-03-16T04:59:09.907Z,-2.35
2023-03-16T05:01:39.712Z,-2.44
2023-03-16T05:04:06.767Z,-2.44
2023-03-16T05:06:33.472Z,-2.42
2023-03-16T05:09:01.813Z,-2.45
2023-03-16T05:11:28.831Z,-2.45
2023-03-16T05:13:55.610Z,-2.41
2023-03-16T05:16:22.385Z,-2.40
2023-03-16T05:18:49.297Z,-2.59
2023-03-16T05:21:16.860Z,-2.42
2023-03-16T05:23:43.547Z,-2.49
2023-03-16T05:26:10.276Z,-2.57
2023-03-16T05:28:37.001Z,-2.62
2023-03-16T05:31:04.061Z,-2.77
2023-03-16T05:33:30.980Z,-2.59
2023-03-16T05:35:58.260Z,-2.58
2023-03-16T05:38:25.343Z,-2.56
2023-03-16T05:40:53.295Z,-2.88
2023-03-16T05:43:21.045Z,-2.77
2023-03-16T05:45:47.914Z,-2.90
2023-03-16T05:48:18.360Z,-2.92
2023-03-16T05:50:45.014Z,-2.72
2023-03-16T05:53:11.688Z,-2.77
2023-03-16T05:55:38.340Z,-2.60
2023-03-16T05:58:05.975Z,-2.77
2023-03-16T06:00:32.991Z,-2.72
2023-03-16T06:05:28.782Z,-2.80
2023-03-16T06:07:55.825Z,-2.75
2023-03-16T06:10:22.573Z,-2.76
2023-03-16T06:12:49.345Z,-2.59
2023-03-16T06:15:16.257Z,-2.61
2023-03-16T06:17:43.115Z,-2.59
2023-03-16T06:20:13.254Z,-2.55
2023-03-16T06:22:41.628Z,-2.65
2023-03-16T06:25:10.133Z,-2.48
2023-03-16T06:27:37.512Z,-2.41
2023-03-16T06:30:06.525Z,-2.50
2023-03-16T06:32:33.315Z,-2.37
2023-03-16T06:35:02.048Z,-2.26
2023-03-16T06:37:29.870Z,-2.19
2023-03-16T06:39:57.150Z,-2.07
2023-03-16T06:42:24.336Z,-2.22
2023-03-16T06:44:52.499Z,-2.20
2023-03-16T06:47:20.116Z,-2.08
2023-03-16T06:49:47.327Z,-2.20
2023-03-16T06:52:14.979Z,-2.15
2023-03-16T06:54:41.857Z,-2.16
2023-03-16T06:57:09.093Z,-2.13
2023-03-16T06:59:36.099Z,-1.90
2023-03-16T07:02:03.152Z,-1.78
2023-03-16T07:04:32.982Z,-1.82
2023-03-16T07:09:28.365Z,-1.89
2023-03-16T07:11:55.132Z,-1.52
2023-03-16T07:14:23.529Z,-1.31
2023-03-16T07:16:50.950Z,-1.45
2023-03-16T07:19:20.551Z,-1.31
2023-03-16T07:21:52.013Z,-0.99
2023-03-16T07:24:18.930Z,-0.99
2023-03-16T07:26:46.609Z,-1.30
2023-03-16T07:29:14.573Z,-1.06
2023-03-16T07:31:41.293Z,-1.03
2023-03-16T07:34:08.096Z,-0.71
2023-03-16T07:36:35.989Z,-0.68
2023-03-16T07:39:03.278Z,-0.75
2023-03-16T07:41:33.167Z,-0.29
2023-03-16T07:46:27.140Z,-0.58
2023-03-16T07:48:53.886Z,-0.70
2023-03-16T07:51:21.518Z,-0.65
2023-03-16T07:53:48.199Z,-0.19
2023-03-16T07:56:15.123Z,-0.19
2023-03-16T07:58:42.072Z,-0.15
2023-03-16T08:01:11.121Z,-0.06
2023-03-16T08:03:42.292Z,0.22
2023-03-16T08:06:09.069Z,0.29
2023-03-16T08:08:35.864Z,0.22
2023-03-16T08:11:02.631Z,0.51
2023-03-16T08:13:30.487Z,0.64
2023-03-16T08:18:26.795Z,0.62
2023-03-16T08:20:55.026Z,1.09
2023-03-16T08:23:22.583Z,0.93
2023-03-16T08:25:52.624Z,0.63
2023-03-16T08:28:21.839Z,1.15
2023-03-16T08:30:51.179Z,1.11
2023-03-16T08:33:22.558Z,1.24
2023-03-16T08:35:49.859Z,1.52
2023-03-16T08:38:16.600Z,2.14
2023-03-16T08:40:48.662Z,1.92
2023-03-16T08:43:17.543Z,2.05
2023-03-16T08:45:47.762Z,2.35
2023-03-16T08:48:15.462Z,2.84
2023-03-16T08:50:47.186Z,2.86
2023-03-16T08:53:14.810Z,3.06
2023-03-16T08:55:42.045Z,3.08
2023-03-16T08:58:11.990Z,3.90
2023-03-16T09:00:39.291Z,3.52
2023-03-16T09:03:07.106Z,3.76
2023-03-16T09:05:34.989Z,3.87
2023-03-16T09:08:01.966Z,4.37
2023-03-16T09:10:29.277Z,4.39
2023-03-16T09:12:56.847Z,4.81
2023-03-16T09:15:23.969Z,4.66
2023-03-16T09:17:50.663Z,5.03
2023-03-16T09:20:34.975Z,4.79
2023-03-16T09:23:01.877Z,4.74
2023-03-16T09:25:28.839Z,4.99
2023-03-16T09:27:55.821Z,6.19
2023-03-16T09:30:22.649Z,5.98
2023-03-16T09:32:50.603Z,5.38
2023-03-16T09:35:17.681Z,5.44
2023-03-16T09:38:01.143Z,5.67
2023-03-16T09:40:29.497Z,6.01
2023-03-16T09:43:02.074Z,6.20
2023-03-16T09:45:57.805Z,6.20
2023-03-16T09:48:31.078Z,6.40
2023-03-16T09:50:59.490Z,6.37
2023-03-16T09:53:35.523Z,7.08
2023-03-16T09:56:09.502Z,6.67
2023-03-16T09:58:37.035Z,7.17
2023-03-16T10:01:07.820Z,7.58
2023-03-16T10:03:52.194Z,7.01
2023-03-16T10:06:20.248Z,7.03
2023-03-16T10:09:02.035Z,6.88
2023-03-16T10:11:57.003Z,7.76
2023-03-16T10:14:54.338Z,7.43
2023-03-16T10:17:29.205Z,7.72
2023-03-16T10:20:01.994Z,7.49
2023-03-16T10:22:39.395Z,7.71
2023-03-16T10:25:17.095Z,7.65
2023-03-16T10:27:46.408Z,8.35
2023-03-16T10:30:19.960Z,8.38
2023-03-16T10:32:47.601Z,7.72
2023-03-16T10:35:28.514Z,8.01
2023-03-16T10:37:56.839Z,8.13
2023-03-16T10:40:23.724Z,8.07
2023-03-16T10:42:50.596Z,8.63
2023-03-16T10:45:26.748Z,8.67
2023-03-16T10:47:54.355Z,8.46
2023-03-16T10:50:27.489Z,9.18
2023-03-16T10:52:57.115Z,8.72
2023-03-16T10:55:32.942Z,9.10
2023-03-16T10:58:08.014Z,9.38
2023-03-16T11:00:43.621Z,9.38
2023-03-16T11:03:37.111Z,9.01
2023-03-16T11:06:07.018Z,9.32
2023-03-16T11:08:41.580Z,9.24
2023-03-16T11:11:16.985Z,9.98
2023-03-16T11:13:46.488Z,10.65
2023-03-16T11:16:31.865Z,10.32
2023-03-16T11:19:04.903Z,10.62
2023-03-16T11:22:02.142Z,9.97
2023-03-16T11:24:52.823Z,10.19
2023-03-16T11:28:02.454Z,10.45
2023-03-16T11:31:02.265Z,11.11
2023-03-16T11:33:31.420Z,11.17
2023-03-16T11:36:02.123Z,11.25
2023-03-16T11:38:49.467Z,12.41
2023-03-16T11:41:43.147Z,12.12
2023-03-16T11:44:22.448Z,11.84
2023-03-16T11:47:02.145Z,12.40
2023-03-16T11:49:52.098Z,13.29
2023-03-16T11:52:46.441Z,13.19
2023-03-16T11:55:24.749Z,13.15
2023-03-16T11:57:51.886Z,12.69
2023-03-16T12:00:24.825Z,12.98
2023-03-16T12:03:02.211Z,12.13
2023-03-16T12:05:35.080Z,12.45
2023-03-16T12:08:26.826Z,13.27
2023-03-16T12:11:01.134Z,13.88
2023-03-16T12:13:32.742Z,14.80
2023-03-16T12:16:01.205Z,12.75
2023-03-16T12:18:39.256Z,13.71
2023-03-16T12:21:20.439Z,13.34
2023-03-16T12:24:02.201Z,12.36
2023-03-16T12:26:34.934Z,14.20
2023-03-16T12:29:17.696Z,13.30
2023-03-16T12:31:54.302Z,12.92
2023-03-16T12:34:48.149Z,13.39
2023-03-16T12:37:19.706Z,12.29
2023-03-16T12:39:56.153Z,14.03
2023-03-16T12:42:43.820Z,13.82
2023-03-16T12:45:37.617Z,14.66
2023-03-16T12:48:22.118Z,15.09
2023-03-16T12:50:51.411Z,14.83
2023-03-16T12:53:56.230Z,15.19
2023-03-16T12:56:36.187Z,14.32
2023-03-16T12:59:06.688Z,13.54
2023-03-16T13:01:44.051Z,13.87
2023-03-16T13:04:23.790Z,15.32
2023-03-16T13:07:03.316Z,14.53
2023-03-16T13:09:34.250Z,14.94
2023-03-16T13:12:02.116Z,15.44
2023-03-16T13:14:34.958Z,14.77
2023-03-16T13:17:17.516Z,15.37
2023-03-16T13:19:47.896Z,16.54
2023-03-16T13:22:26.244Z,16.15
2023-03-16T13:25:02.200Z,15.76
2023-03-16T13:27:33.641Z,15.71
2023-03-16T13:30:02.356Z,15.24
2023-03-16T13:32:33.837Z,14.82
2023-03-16T13:35:04.827Z,13.58
2023-03-16T13:37:32.459Z,14.39
2023-03-16T13:40:02.146Z,13.76
2023-03-16T13:42:33.775Z,15.36
2023-03-16T13:45:02.205Z,14.17
2023-03-16T13:47:29.124Z,15.25
2023-03-16T13:49:59.050Z,14.54
2023-03-16T13:52:30.938Z,16.18
2023-03-16T13:54:59.859Z,16.87
2023-03-16T13:57:29.899Z,16.79
2023-03-16T14:00:01.205Z,15.60
2023-03-16T14:02:28.067Z,16.08
2023-03-16T14:04:55.124Z,16.26
2023-03-16T14:07:24.773Z,17.50
2023-03-16T14:09:52.611Z,15.64
2023-03-16T14:12:20.193Z,16.42
2023-03-16T14:14:51.211Z,16.09
2023-03-16T14:17:21.517Z,16.69
2023-03-16T14:19:51.170Z,16.29
2023-03-16T14:22:31.128Z,16.28
2023-03-16T14:27:39.519Z,16.86
2023-03-16T14:30:27.097Z,15.33
2023-03-16T14:32:58.680Z,15.12
2023-03-16T14:35:28.953Z,13.93
2023-03-16T14:37:57.250Z,13.53
2023-03-16T14:40:30.996Z,12.33
2023-03-16T14:45:33.931Z,11.79
2023-03-16T14:48:02.316Z,12.11
2023-03-16T14:50:29.232Z,12.16
2023-03-16T14:52:57.049Z,13.53
2023-03-16T14:55:25.009Z,12.33
2023-03-16T14:57:51.852Z,13.78
2023-03-16T15:00:22.364Z,14.40
2023-03-16T15:02:58.198Z,13.55
2023-03-16T15:05:36.608Z,13.57
2023-03-16T15:08:05.745Z,13.81
2023-03-16T15:10:35.441Z,13.62
2023-03-16T15:13:12.988Z,13.92
2023-03-16T15:15:44.265Z,12.47
2023-03-16T15:18:11.100Z,12.43
2023-03-16T15:20:43.928Z,12.08
2023-03-16T15:23:15.893Z,11.37
2023-03-16T15:25:47.335Z,11.23
2023-03-16T15:28:14.085Z,11.67
2023-03-16T15:30:41.150Z,12.32
2023-03-16T15:33:10.530Z,12.03
2023-03-16T15:35:37.704Z,11.95
2023-03-16T15:38:18.384Z,11.25
2023-03-16T15:40:47.919Z,11.14
2023-03-16T15:43:18.785Z,10.90
2023-03-16T15:45:47.424Z,10.44
2023-03-16T15:48:15.118Z,10.88
2023-03-16T15:50:47.033Z,10.65
2023-03-16T15:53:30.908Z,10.37
2023-03-16T15:56:01.455Z,10.48
2023-03-16T15:58:32.808Z,10.40
2023-03-16T16:01:02.725Z,10.10
2023-03-16T16:03:29.970Z,9.86
2023-03-16T16:05:57.033Z,10.04
2023-03-16T16:08:23.766Z,9.70
2023-03-16T16:10:50.813Z,9.76
2023-03-16T16:13:31.181Z,9.54
2023-03-16T16:16:04.967Z,9.65
2023-03-16T16:18:35.528Z,9.83
2023-03-16T16:21:05.468Z,10.04
2023-03-16T16:23:33.560Z,10.09
2023-03-16T16:26:02.272Z,9.95
2023-03-16T16:28:33.345Z,9.65
2023-03-16T16:31:02.553Z,9.84
2023-03-16T16:33:36.036Z,9.60
2023-03-16T16:36:06.259Z,9.38
2023-03-16T16:38:34.308Z,9.29
2023-03-16T16:41:01.294Z,9.19
2023-03-16T16:43:41.353Z,9.16
2023-03-16T16:46:26.244Z,9.11
2023-03-16T16:49:04.161Z,8.99
2023-03-16T16:51:34.662Z,8.83
2023-03-16T16:54:02.440Z,8.74
2023-03-16T16:56:42.073Z,8.71
2023-03-16T16:59:19.121Z,8.59
2023-03-16T17:01:54.267Z,8.57
2023-03-16T17:04:24.857Z,8.51
2023-03-16T17:06:55.767Z,8.47
2023-03-16T17:09:23.665Z,8.34
2023-03-16T17:11:51.483Z,8.28
2023-03-16T17:14:20.626Z,8.26
2023-03-16T17:16:48.583Z,8.17
2023-03-16T17:19:28.186Z,8.12
2023-03-16T17:21:57.798Z,8.10
2023-03-16T17:24:25.174Z,8.02
2023-03-16T17:29:34.374Z,7.92
2023-03-16T17:32:01.335Z,7.84
2023-03-16T17:34:29.979Z,7.70
2023-03-16T17:36:56.680Z,7.67
2023-03-16T17:39:31.904Z,7.58
2023-03-16T17:42:02.323Z,7.48
2023-03-16T17:44:34.826Z,7.41
2023-03-16T17:47:03.423Z,7.31
2023-03-16T17:49:32.213Z,7.32
2023-03-16T17:51:59.338Z,7.35
2023-03-16T17:54:26.271Z,7.22
2023-03-16T17:56:56.107Z,7.19
2023-03-16T17:59:23.557Z,7.13
2023-03-16T18:01:50.494Z,7.00
2023-03-16T18:04:27.685Z,6.99
2023-03-16T18:06:55.656Z,6.92
2023-03-16T18:09:22.367Z,6.78
2023-03-16T18:11:51.056Z,6.75
2023-03-16T18:14:35.206Z,6.70
2023-03-16T18:17:07.918Z,6.67
2023-03-16T18:19:34.925Z,6.63
2023-03-16T18:22:01.749Z,6.59
2023-03-16T18:24:28.489Z,6.47
2023-03-16T18:26:55.765Z,6.49
2023-03-16T18:29:22.760Z,6.39
2023-03-16T18:31:52.270Z,6.35
2023-03-16T18:34:24.043Z,6.27
2023-03-16T18:36:53.663Z,6.23
2023-03-16T18:39:21.799Z,6.06
2023-03-16T18:41:48.827Z,6.04
2023-03-16T18:44:24.455Z,5.93
2023-03-16T18:46:54.535Z,5.77
2023-03-16T18:49:34.230Z,5.84
2023-03-16T18:52:02.387Z,5.82
2023-03-16T18:54:31.520Z,5.78
2023-03-16T18:56:59.043Z,5.66
2023-03-16T18:59:26.825Z,5.77
2023-03-16T19:01:54.095Z,5.84
2023-03-16T19:04:24.650Z,5.69
2023-03-16T19:06:54.156Z,5.66
2023-03-16T19:09:29.433Z,5.59
2023-03-16T19:11:56.582Z,5.59
2023-03-16T19:14:26.848Z,5.50
2023-03-16T19:16:54.783Z,5.53
2023-03-16T19:19:23.595Z,5.49
2023-03-16T19:22:02.305Z,5.48
2023-03-16T19:24:34.608Z,5.44
2023-03-16T19:27:02.315Z,5.28
2023-03-16T19:29:34.585Z,5.31
2023-03-16T19:32:01.413Z,5.34
2023-03-16T19:34:28.928Z,5.37
2023-03-16T19:36:56.178Z,5.30
2023-03-16T19:39:26.467Z,5.33
2023-03-16T19:41:57.814Z,5.28
2023-03-16T19:44:27.455Z,5.19
2023-03-16T19:46:59.443Z,5.14
2023-03-16T19:49:27.410Z,5.14
2023-03-16T19:51:59.129Z,5.06
2023-03-16T19:54:35.333Z,5.04
2023-03-16T19:57:10.534Z,5.05
2023-03-16T19:59:38.314Z,5.08
2023-03-16T20:02:23.140Z,4.98
2023-03-16T20:04:50.011Z,4.97
2023-03-16T20:07:17.474Z,5.02
2023-03-16T20:09:47.884Z,4.92
2023-03-16T20:12:22.772Z,4.96
2023-03-16T20:14:51.442Z,4.95
2023-03-16T20:17:24.349Z,4.89
2023-03-16T20:19:52.237Z,4.87
2023-03-16T20:22:21.673Z,4.89
2023-03-16T20:24:51.097Z,4.83
2023-03-16T20:27:23.348Z,4.81
2023-03-16T20:29:50.825Z,4.86
2023-03-16T20:32:24.014Z,4.86
2023-03-16T20:34:51.795Z,4.87
2023-03-16T20:37:30.045Z,4.81
2023-03-16T20:39:59.346Z,4.79
2023-03-16T20:42:29.969Z,4.74
2023-03-16T20:44:56.690Z,4.71
2023-03-16T20:47:25.995Z,4.68
2023-03-16T20:49:58.676Z,4.69
2023-03-16T20:52:30.635Z,4.58
2023-03-16T20:54:58.522Z,4.58
2023-03-16T20:57:27.368Z,4.50
2023-03-16T20:59:55.805Z,4.52
2023-03-16T21:02:37.139Z,4.49
2023-03-16T21:05:07.138Z,4.47
2023-03-16T21:07:34.171Z,4.38
2023-03-16T21:12:32.123Z,4.30
2023-03-16T21:15:02.496Z,4.29
2023-03-16T21:17:37.276Z,4.30
2023-03-16T21:20:16.084Z,4.24
2023-03-16T21:22:43.382Z,4.16
2023-03-16T21:25:18.922Z,4.15
2023-03-16T21:27:49.897Z,4.17
2023-03-16T21:30:32.958Z,4.05
2023-03-16T21:35:37.349Z,4.06
2023-03-16T21:38:14.828Z,3.99
2023-03-16T21:40:41.625Z,4.03
2023-03-16T21:43:10.745Z,3.96
2023-03-16T21:45:39.495Z,3.98
2023-03-16T21:48:06.566Z,3.91
2023-03-16T21:50:35.397Z,4.00
2023-03-16T21:53:02.498Z,4.00
2023-03-16T21:55:31.573Z,4.04
2023-03-16T22:00:30.701Z,3.96
2023-03-16T22:05:37.779Z,4.02
2023-03-16T22:08:14.795Z,3.93
2023-03-16T22:10:42.156Z,3.93
2023-03-16T22:13:09.669Z,3.90
2023-03-16T22:15:36.965Z,3.87
2023-03-16T22:18:08.807Z,3.74
2023-03-16T22:20:36.717Z,3.81
2023-03-16T22:23:04.349Z,3.87
2023-03-16T22:25:31.391Z,3.84
2023-03-16T22:27:58.312Z,3.79
2023-03-16T22:30:28.696Z,3.77
2023-03-16T22:35:31.751Z,3.66
2023-03-16T22:40:32.571Z,3.62
2023-03-16T22:43:03.193Z,3.63
2023-03-16T22:45:32.779Z,3.61
2023-03-16T22:48:02.617Z,3.61
2023-03-16T22:50:34.452Z,3.56
2023-03-16T22:53:02.932Z,3.58
2023-03-16T22:55:39.346Z,3.53
2023-03-16T22:58:09.058Z,3.46
2023-03-16T23:00:36.353Z,3.56
2023-03-16T23:03:03.416Z,3.48
2023-03-16T23:05:31.291Z,3.49
2023-03-16T23:10:30.574Z,3.37
2023-03-16T23:13:03.862Z,3.34
2023-03-16T23:15:31.240Z,3.32
2023-03-16T23:17:58.337Z,3.33
2023-03-16T23:20:29.123Z,3.29
2023-03-16T23:22:56.016Z,3.20
2023-03-16T23:25:24.116Z,3.23
2023-03-16T23:27:52.789Z,3.22
2023-03-16T23:30:23.839Z,3.29
2023-03-16T23:32:52.433Z,3.24
2023-03-16T23:35:24.821Z,3.18
2023-03-16T23:37:52.614Z,3.29
2023-03-16T23:40:21.728Z,3.26
2023-03-16T23:42:48.946Z,3.26
2023-03-16T23:45:32.410Z,3.28
2023-03-16T23:48:02.504Z,3.32
2023-03-16T23:50:32.327Z,3.27
2023-03-16T23:52:59.352Z,3.29
2023-03-16T23:55:26.788Z,3.29
2023-03-16T23:57:53.740Z,3.26
